Vasiliy Bozhenko — URHP — position and weather

sailwx.info

Track history (hours):
 
Tides and Currents Weather Stations Pressure Air Temp Water Temp Dewpoint Dewpoint Depression Visibility Wind Speed Wind Dir Waves Ship Positions

Vasiliy Bozhenko

Last reported at 2017-Aug-17 07:54 UTC. Time now 2017-Aug-17 07:58 UTC.
Position N 44°21' E 028°41'.

Length 114 m; draft 2.8 m.

Type: Cargo ship. MMSI: 272085000.

Date/timePositionNaut miles runAvg speedWind from/ knotsBaromVisibWave heightAir tempDewpointWater temp
2017-Aug-17 07:54N 44°21' E 028°41'0 0.0
2017-Aug-17 07:23N 44°21' E 028°41'0 0.0
2017-Aug-17 07:00N 44°21' E 028°41'0 0.0
2017-Aug-17 06:26N 44°21' E 028°41'0 0.0
2017-Aug-17 05:52N 44°21' E 028°41'0 0.0
2017-Aug-17 05:28N 44°21' E 028°41'0 0.0
2017-Aug-17 05:00N 44°21' E 028°41'0 0.0
2017-Aug-17 04:29N 44°21' E 028°41'0 0.0
2017-Aug-17 03:54N 44°21' E 028°41'0 0.0
2017-Aug-17 03:29N 44°21' E 028°41'0 0.0
2017-Aug-17 02:59N 44°21' E 028°41'0 0.0
2017-Aug-17 02:25N 44°21' E 028°41'0 0.0
2017-Aug-17 01:58N 44°21' E 028°41'0 0.0
2017-Aug-17 01:30N 44°21' E 028°41'0 0.0
2017-Aug-17 01:00N 44°21' E 028°41'0 0.0
2017-Aug-17 00:30N 44°21' E 028°41'0 0.0
2017-Aug-16 23:44N 44°21' E 028°41'0 0.0
2017-Aug-16 23:30N 44°21' E 028°41'0 0.0
2017-Aug-16 22:59N 44°21' E 028°41'0 0.0
2017-Aug-16 22:27N 44°21' E 028°41'0 0.0
2017-Aug-16 22:00N 44°21' E 028°41'0 0.0
2017-Aug-16 21:30N 44°21' E 028°41'0 0.0
2017-Aug-16 20:58N 44°21' E 028°41'0 0.0
2017-Aug-16 20:28N 44°21' E 028°41'0 0.0
2017-Aug-16 19:59N 44°21' E 028°41'0 0.0
2017-Aug-16 19:30N 44°21' E 028°41'0 0.0
2017-Aug-16 18:57N 44°21' E 028°41'0 0.0
2017-Aug-16 18:29N 44°21' E 028°41'0 0.0
2017-Aug-16 17:58N 44°21' E 028°41'0 0.0
2017-Aug-16 17:28N 44°21' E 028°41'0 0.0
2017-Aug-16 16:58N 44°21' E 028°41'0 0.0
2017-Aug-16 16:28N 44°21' E 028°41'0 0.0
2017-Aug-16 15:55N 44°21' E 028°41'0 0.0
2017-Aug-16 15:30N 44°21' E 028°41'0 0.0
2017-Aug-16 15:00N 44°21' E 028°41'0 0.0
2017-Aug-16 14:27N 44°21' E 028°41'0 0.0
2017-Aug-16 14:00N 44°21' E 028°41'0 0.0
2017-Aug-16 13:30N 44°21' E 028°41'0 0.0
2017-Aug-16 13:00N 44°21' E 028°41'0 0.1
2017-Aug-16 12:30N 44°21' E 028°41'2 3.9
2017-Aug-16 12:00N 44°19' E 028°42'3 5.7
2017-Aug-16 11:30N 44°17' E 028°45'3 5.7
2017-Aug-16 11:00N 44°15' E 028°47'3 5.5
2017-Aug-16 10:30N 44°12' E 028°50'2 4.6
2017-Aug-16 10:00N 44°10' E 028°51'2 4.3
2017-Aug-16 09:30N 44°08' E 028°51'2 4.4
2017-Aug-16 09:00N 44°06' E 028°51'2 4.3
2017-Aug-16 08:30N 44°04' E 028°51'2 4.4
2017-Aug-16 08:00N 44°02' E 028°51'2 4.3
2017-Aug-16 07:30N 43°59' E 028°51'2 4.3
2017-Aug-16 07:00N 43°57' E 028°51'2 4.3
2017-Aug-16 06:30N 43°55' E 028°51'2 4.5
2017-Aug-16 06:00N 43°53' E 028°51'2 4.6
2017-Aug-16 05:30N 43°51' E 028°51'2 4.5
2017-Aug-16 05:00N 43°48' E 028°51'2 4.4
2017-Aug-16 04:30N 43°46' E 028°50'2 4.8
2017-Aug-16 04:00N 43°44' E 028°51'2 4.5
2017-Aug-16 03:30N 43°42' E 028°50'2 4.8
2017-Aug-16 03:00N 43°40' E 028°48'2 4.5
2017-Aug-16 02:30N 43°38' E 028°46'2 4.2
2017-Aug-16 01:59N 43°36' E 028°44'3 3.9
2017-Aug-16 01:15N 43°34' E 028°42'1 4.2
2017-Aug-16 00:55N 43°32' E 028°42'  
2017-Aug-09 00:33N 40°45' E 029°29'1 6.1
2017-Aug-09 00:26N 40°44' E 029°28'3 6.2
2017-Aug-09 00:00N 40°44' E 029°25'3 5.7
2017-Aug-08 23:29N 40°44' E 029°21'3 5.6
2017-Aug-08 23:00N 40°44' E 029°18'3 6.0
2017-Aug-08 22:30N 40°46' E 029°14'3 5.9
2017-Aug-08 22:00N 40°47' E 029°10'3 6.0
2017-Aug-08 21:30N 40°48' E 029°07'3 6.1
2017-Aug-08 21:00N 40°49' E 029°03'3 6.0
2017-Aug-08 20:27N 40°50' E 028°59'9 2.1
2017-Aug-08 16:16N 40°59' E 028°59'  
Track history (hours):
 
Tides and Currents Weather Stations Pressure Air Temp Water Temp Dewpoint Dewpoint Depression Visibility Wind Speed Wind Dir Waves Ship Positions

Vasiliy Bozhenko

Last reported at 2017-Aug-17 07:54 UTC. Time now 2017-Aug-17 07:58 UTC.
Position N 44°21' E 028°41'.

Length 114 m; draft 2.8 m.

Type: Cargo ship. MMSI: 272085000.

Date/timePositionNaut miles runAvg speedWind from/ knotsBaromVisibWave heightAir tempDewpointWater temp
2017-Aug-17 07:54N 44°21' E 028°41'0 0.0
2017-Aug-17 07:23N 44°21' E 028°41'0 0.0
2017-Aug-17 07:00N 44°21' E 028°41'0 0.0
2017-Aug-17 06:26N 44°21' E 028°41'0 0.0
2017-Aug-17 05:52N 44°21' E 028°41'0 0.0
2017-Aug-17 05:28N 44°21' E 028°41'0 0.0
2017-Aug-17 05:00N 44°21' E 028°41'0 0.0
2017-Aug-17 04:29N 44°21' E 028°41'0 0.0
2017-Aug-17 03:54N 44°21' E 028°41'0 0.0
2017-Aug-17 03:29N 44°21' E 028°41'0 0.0
2017-Aug-17 02:59N 44°21' E 028°41'0 0.0
2017-Aug-17 02:25N 44°21' E 028°41'0 0.0
2017-Aug-17 01:58N 44°21' E 028°41'0 0.0
2017-Aug-17 01:30N 44°21' E 028°41'0 0.0
2017-Aug-17 01:00N 44°21' E 028°41'0 0.0
2017-Aug-17 00:30N 44°21' E 028°41'0 0.0
2017-Aug-16 23:44N 44°21' E 028°41'0 0.0
2017-Aug-16 23:30N 44°21' E 028°41'0 0.0
2017-Aug-16 22:59N 44°21' E 028°41'0 0.0
2017-Aug-16 22:27N 44°21' E 028°41'0 0.0
2017-Aug-16 22:00N 44°21' E 028°41'0 0.0
2017-Aug-16 21:30N 44°21' E 028°41'0 0.0
2017-Aug-16 20:58N 44°21' E 028°41'0 0.0
2017-Aug-16 20:28N 44°21' E 028°41'0 0.0
2017-Aug-16 19:59N 44°21' E 028°41'0 0.0
2017-Aug-16 19:30N 44°21' E 028°41'0 0.0
2017-Aug-16 18:57N 44°21' E 028°41'0 0.0
2017-Aug-16 18:29N 44°21' E 028°41'0 0.0
2017-Aug-16 17:58N 44°21' E 028°41'0 0.0
2017-Aug-16 17:28N 44°21' E 028°41'0 0.0
2017-Aug-16 16:58N 44°21' E 028°41'0 0.0
2017-Aug-16 16:28N 44°21' E 028°41'0 0.0
2017-Aug-16 15:55N 44°21' E 028°41'0 0.0
2017-Aug-16 15:30N 44°21' E 028°41'0 0.0
2017-Aug-16 15:00N 44°21' E 028°41'0 0.0
2017-Aug-16 14:27N 44°21' E 028°41'0 0.0
2017-Aug-16 14:00N 44°21' E 028°41'0 0.0
2017-Aug-16 13:30N 44°21' E 028°41'0 0.0
2017-Aug-16 13:00N 44°21' E 028°41'0 0.1
2017-Aug-16 12:30N 44°21' E 028°41'2 3.9
2017-Aug-16 12:00N 44°19' E 028°42'3 5.7
2017-Aug-16 11:30N 44°17' E 028°45'3 5.7
2017-Aug-16 11:00N 44°15' E 028°47'3 5.5
2017-Aug-16 10:30N 44°12' E 028°50'2 4.6
2017-Aug-16 10:00N 44°10' E 028°51'2 4.3
2017-Aug-16 09:30N 44°08' E 028°51'2 4.4
2017-Aug-16 09:00N 44°06' E 028°51'2 4.3
2017-Aug-16 08:30N 44°04' E 028°51'2 4.4
2017-Aug-16 08:00N 44°02' E 028°51'2 4.3
2017-Aug-16 07:30N 43°59' E 028°51'2 4.3
2017-Aug-16 07:00N 43°57' E 028°51'2 4.3
2017-Aug-16 06:30N 43°55' E 028°51'2 4.5
2017-Aug-16 06:00N 43°53' E 028°51'2 4.6
2017-Aug-16 05:30N 43°51' E 028°51'2 4.5
2017-Aug-16 05:00N 43°48' E 028°51'2 4.4
2017-Aug-16 04:30N 43°46' E 028°50'2 4.8
2017-Aug-16 04:00N 43°44' E 028°51'2 4.5
2017-Aug-16 03:30N 43°42' E 028°50'2 4.8
2017-Aug-16 03:00N 43°40' E 028°48'2 4.5
2017-Aug-16 02:30N 43°38' E 028°46'2 4.2
2017-Aug-16 01:59N 43°36' E 028°44'3 3.9
2017-Aug-16 01:15N 43°34' E 028°42'1 4.2
2017-Aug-16 00:55N 43°32' E 028°42'  
2017-Aug-09 00:33N 40°45' E 029°29'1 6.1
2017-Aug-09 00:26N 40°44' E 029°28'3 6.2
2017-Aug-09 00:00N 40°44' E 029°25'3 5.7
2017-Aug-08 23:29N 40°44' E 029°21'3 5.6
2017-Aug-08 23:00N 40°44' E 029°18'3 6.0
2017-Aug-08 22:30N 40°46' E 029°14'3 5.9
2017-Aug-08 22:00N 40°47' E 029°10'3 6.0
2017-Aug-08 21:30N 40°48' E 029°07'3 6.1
2017-Aug-08 21:00N 40°49' E 029°03'3 6.0
2017-Aug-08 20:27N 40°50' E 028°59'9 2.1
2017-Aug-08 16:16N 40°59' E 028°59'  

Dump ship's entire track history